KSBY/SBY METAR and TAF weather

Enter ICAO airport designator
Station Type Date Time Source
KSBY METAR 2019/08/23 17:33 UTC NOAA

KSBY 231733Z 02009KT 10SM SCT021 BKN027 OVC037 27/22 A2995 RMK AO2 T02670222


Station Type Date Time Source
KSBY Decoded METAR 2019/08/23 17:33 UTC NOAA

Station name not available
Aug 23, 2019 - 01:33 PM EDT / 2019.08.23 1733 UTC
Wind: from the NNE (020 degrees) at 10 MPH (9 KT):0
Visibility: 10 mile(s):0
Sky conditions: overcast
Temperature: 80.1 F (26.7 C)
Dew Point: 72.0 F (22.2 C)
Relative Humidity: 76%
Pressure (altimeter): 29.95 in. Hg (1014 hPa)
ob: KSBY 231733Z 02009KT 10SM SCT021 BKN027 OVC037 27/22 A2995 RMK AO2 T02670222
cycle: 17

Station Type Date Time Source
KSBY TAF 2019/08/23 18:33 UTC NOAA

TAF KSBY 231731Z 2318/2418 04006KT P6SM VCTS OVC025CB
FM240000 03007KT P6SM VCSH OVC050
FM240600 35008KT P6SM BKN050
FM241100 02007KT P6SM BKN060
FM241700 04009KT P6SM BKN070

Example: see airport list